Harvest Peace — V7VE7 — position and weather

sailwx.info

Track history (hours):
 
Tides and Currents Weather Stations Pressure Air Temp Water Temp Dewpoint Dewpoint Depression Visibility Wind Speed Wind Dir Waves Ship Positions

Harvest Peace

Last reported at 2015-Jul-18 12:32 UTC. Time now 2015-Aug-01 03:29 UTC.
Position N 37°48' E 123°36'.
Warning: this ship's position is 13 days out of date.

Length 225 m; draft 6 m.

Type: Cargo ship. MMSI: 538004103.

Date/timePositionNaut miles runAvg speedWind from/ knotsBaromVisibWave heightAir tempDewpointWater temp
2015-Jul-18 12:32N 37°48' E 123°36'4013.1
2015-Jul-18 09:30N 38°04' E 122°50'2713.8
2015-Jul-18 07:33N 38°12' E 122°18'1313.0
2015-Jul-18 06:33N 38°14' E 122°02'2311.6
2015-Jul-18 04:33N 38°15' E 121°32'8110.1
2015-Jul-17 20:28N 39°16' E 120°23'5 5.4
2015-Jul-17 19:33N 39°20' E 120°21'5 5.4
2015-Jul-17 18:33N 39°26' E 120°19'6 5.8
2015-Jul-17 17:31N 39°31' E 120°17'6 6.3
2015-Jul-17 16:33N 39°37' E 120°14'6 6.5
2015-Jul-17 15:33N 39°42' E 120°09'6 5.8
2015-Jul-17 14:33N 39°45' E 120°02'6 5.9
2015-Jul-17 13:33N 39°47' E 119°55'6 6.4
2015-Jul-17 12:33N 39°53' E 119°50'2 1.7
2015-Jul-17 11:33N 39°54' E 119°52'3 3.1
2015-Jul-17 10:33N 39°56' E 119°50'2 1.8
2015-Jul-17 09:27N 39°58' E 119°50'0 0.0
2015-Jul-17 08:21N 39°58' E 119°50'0 0.0
2015-Jul-17 07:21N 39°58' E 119°50'0 0.0
2015-Jul-17 06:33N 39°58' E 119°50'0 0.0
2015-Jul-17 05:33N 39°58' E 119°50'0 0.0
2015-Jul-17 04:33N 39°58' E 119°50'0 0.0
2015-Jul-17 03:33N 39°58' E 119°50'0 0.0
2015-Jul-17 02:33N 39°58' E 119°50'0 0.0
2015-Jul-17 01:33N 39°58' E 119°50'0 0.0
2015-Jul-17 00:33N 39°58' E 119°50'0 0.0
2015-Jul-16 23:27N 39°58' E 119°50'0 0.0
2015-Jul-16 22:33N 39°58' E 119°50'0 0.0
2015-Jul-16 21:33N 39°58' E 119°50'0 0.0
2015-Jul-16 20:33N 39°58' E 119°50'0 0.0
2015-Jul-16 19:27N 39°58' E 119°50'0 0.0
2015-Jul-16 18:33N 39°58' E 119°50'0 0.0
2015-Jul-16 17:33N 39°58' E 119°50'0 0.0
2015-Jul-16 16:33N 39°58' E 119°50'0 0.0
2015-Jul-16 15:33N 39°58' E 119°50'0 0.0
2015-Jul-16 14:33N 39°58' E 119°50'0 0.0
2015-Jul-16 13:33N 39°58' E 119°50'0 0.0
2015-Jul-16 12:33N 39°58' E 119°50'0 0.0
2015-Jul-16 11:33N 39°58' E 119°50'0 0.0
2015-Jul-16 10:33N 39°58' E 119°50'0 0.0
2015-Jul-16 09:33N 39°58' E 119°50'0 0.0
2015-Jul-16 08:33N 39°58' E 119°50'0 0.0
2015-Jul-16 07:27N 39°58' E 119°50'0 0.0
2015-Jul-16 06:33N 39°58' E 119°50'0 0.0
2015-Jul-16 05:27N 39°58' E 119°50'0 0.0
2015-Jul-16 04:33N 39°58' E 119°50'0 0.0
2015-Jul-16 03:33N 39°58' E 119°50'0 0.0
2015-Jul-16 02:33N 39°58' E 119°50'0 0.0
2015-Jul-16 01:33N 39°58' E 119°50'0 0.0
2015-Jul-16 00:33N 39°58' E 119°50'0 0.0
2015-Jul-15 23:27N 39°58' E 119°50'0 0.0
2015-Jul-15 22:33N 39°58' E 119°50'0 0.0
2015-Jul-15 21:33N 39°58' E 119°50'0 0.0
2015-Jul-15 20:33N 39°58' E 119°50'0 0.0
2015-Jul-15 19:33N 39°58' E 119°50'0 0.0
2015-Jul-15 18:33N 39°58' E 119°50'0 0.0
2015-Jul-15 17:33N 39°58' E 119°50'0 0.0
2015-Jul-15 16:33N 39°58' E 119°50'0 0.0
2015-Jul-15 15:33N 39°58' E 119°50'0 0.0
2015-Jul-15 14:33N 39°58' E 119°50'0 0.0
2015-Jul-15 13:33N 39°58' E 119°50'0 0.0
2015-Jul-15 12:33N 39°58' E 119°50'0 0.0
2015-Jul-15 11:33N 39°58' E 119°50'0 0.0
2015-Jul-15 10:33N 39°58' E 119°50'0 0.0
2015-Jul-15 09:33N 39°58' E 119°50'0 0.0
2015-Jul-15 08:33N 39°58' E 119°50'0 0.0
2015-Jul-15 07:33N 39°58' E 119°50'0 0.0
2015-Jul-15 06:33N 39°58' E 119°50'0 0.0
2015-Jul-15 05:27N 39°58' E 119°50'0 0.0
2015-Jul-15 04:21N 39°58' E 119°50'0 0.0
2015-Jul-15 03:30N 39°58' E 119°50'0 0.0
2015-Jul-15 02:25N 39°58' E 119°50'0 0.0
2015-Jul-15 01:30N 39°58' E 119°50'0 0.0
2015-Jul-15 00:30N 39°58' E 119°50'0 0.0
2015-Jul-14 23:30N 39°58' E 119°50'0 0.0
2015-Jul-14 22:30N 39°58' E 119°50'0 0.0
2015-Jul-14 21:30N 39°58' E 119°50'0 0.0
2015-Jul-14 20:30N 39°58' E 119°50'0 0.0
2015-Jul-14 19:30N 39°58' E 119°50'0 0.0
2015-Jul-14 18:30N 39°58' E 119°50'0 0.0
2015-Jul-14 17:30N 39°58' E 119°50'0 0.0
2015-Jul-14 16:30N 39°58' E 119°50'0 0.0
2015-Jul-14 15:30N 39°58' E 119°50'0 0.0
2015-Jul-14 14:30N 39°58' E 119°50'0 0.0
2015-Jul-14 13:30N 39°58' E 119°50'0 0.0
2015-Jul-14 12:30N 39°58' E 119°50'0 0.0
2015-Jul-14 11:30N 39°58' E 119°50'0 0.0
2015-Jul-14 10:30N 39°58' E 119°50'0 0.0
2015-Jul-14 09:24N 39°58' E 119°50'0 0.0
2015-Jul-14 08:30N 39°58' E 119°50'0 0.0
2015-Jul-14 07:30N 39°58' E 119°50'0 0.0
2015-Jul-14 06:30N 39°58' E 119°50'0 0.0
2015-Jul-14 05:24N 39°58' E 119°50'0 0.0
2015-Jul-14 04:30N 39°58' E 119°50'0 0.0
2015-Jul-14 03:12N 39°58' E 119°50'0 0.0
2015-Jul-14 02:30N 39°58' E 119°50'0 0.0
2015-Jul-14 01:30N 39°58' E 119°50'0 0.0
2015-Jul-14 00:30N 39°58' E 119°50'0 0.0
2015-Jul-13 23:30N 39°58' E 119°50'0 0.0
2015-Jul-13 22:30N 39°58' E 119°50'0 0.0
2015-Jul-13 21:30N 39°58' E 119°50'0 0.0
2015-Jul-13 18:30N 39°58' E 119°50'0 0.0
2015-Jul-13 17:30N 39°58' E 119°50'0 0.0
2015-Jul-13 16:30N 39°58' E 119°50'0 0.0
2015-Jul-13 15:24N 39°58' E 119°50'0 0.0
2015-Jul-13 14:24N 39°58' E 119°50'0 0.0
2015-Jul-13 13:30N 39°58' E 119°50'0 0.0
2015-Jul-13 12:30N 39°58' E 119°50'0 0.0
2015-Jul-13 11:30N 39°58' E 119°50'0 0.0
2015-Jul-13 10:24N 39°58' E 119°50'0 0.0
2015-Jul-13 09:30N 39°58' E 119°50'0 0.0
2015-Jul-13 08:30N 39°58' E 119°50'0 0.0
2015-Jul-13 07:30N 39°58' E 119°50'0 0.0
2015-Jul-13 06:30N 39°58' E 119°50'0 0.0
2015-Jul-13 05:30N 39°58' E 119°50'0 0.0
2015-Jul-13 04:30N 39°58' E 119°50'0 0.0
2015-Jul-13 03:30N 39°58' E 119°50'0 0.0
2015-Jul-13 02:30N 39°58' E 119°50'0 0.0
2015-Jul-13 01:30N 39°58' E 119°50'0 0.0
2015-Jul-13 00:30N 39°58' E 119°50'0 0.0
2015-Jul-12 23:30N 39°58' E 119°50'0 0.0
2015-Jul-12 22:24N 39°58' E 119°50'0 0.0
2015-Jul-12 21:24N 39°58' E 119°50'0 0.0
2015-Jul-12 20:30N 39°58' E 119°50'0 0.0
2015-Jul-12 19:30N 39°58' E 119°50'0 0.0
2015-Jul-12 18:30N 39°58' E 119°50'0 0.0
2015-Jul-12 17:24N 39°58' E 119°50'0 0.0
2015-Jul-12 16:30N 39°58' E 119°50'0 0.0
2015-Jul-12 15:30N 39°58' E 119°50'0 0.0
2015-Jul-12 14:30N 39°58' E 119°50'0 0.0
2015-Jul-12 13:30N 39°58' E 119°50'0 0.0
2015-Jul-12 12:30N 39°58' E 119°50'0 0.0
2015-Jul-12 11:30N 39°58' E 119°50'0 0.0
2015-Jul-12 10:30N 39°58' E 119°50'0 0.0
2015-Jul-12 09:24N 39°58' E 119°50'0 0.0
2015-Jul-12 08:30N 39°58' E 119°50'0 0.0
2015-Jul-12 07:30N 39°58' E 119°50'0 0.0
2015-Jul-12 06:30N 39°58' E 119°50'0 0.0
2015-Jul-12 05:30N 39°58' E 119°50'0 0.0
2015-Jul-12 04:30N 39°58' E 119°50'0 0.0
2015-Jul-12 03:30N 39°58' E 119°50'0 0.0
2015-Jul-12 02:30N 39°58' E 119°50'0 0.0
2015-Jul-12 01:30N 39°58' E 119°50'0 0.0
2015-Jul-12 00:30N 39°58' E 119°50'0 0.0
2015-Jul-11 23:24N 39°58' E 119°50'0 0.0
2015-Jul-11 22:30N 39°58' E 119°50'0 0.0
2015-Jul-11 21:30N 39°58' E 119°50'0 0.0
2015-Jul-11 20:30N 39°58' E 119°50'0 0.0
2015-Jul-11 19:30N 39°58' E 119°50'0 0.0
2015-Jul-11 18:30N 39°58' E 119°50'0 0.0
2015-Jul-11 17:30N 39°58' E 119°50'0 0.0
2015-Jul-11 16:30N 39°58' E 119°50'0 0.0
2015-Jul-11 15:30N 39°58' E 119°50'0 0.0
2015-Jul-11 14:30N 39°58' E 119°50'0 0.0
2015-Jul-11 13:32N 39°58' E 119°50'0 0.0
2015-Jul-11 12:28N 39°58' E 119°50'0 0.0
2015-Jul-11 11:28N 39°58' E 119°50'0 0.0
2015-Jul-11 10:28N 39°58' E 119°50'0 0.0
2015-Jul-11 09:28N 39°58' E 119°50'0 0.0
2015-Jul-11 08:06N 39°58' E 119°50'0 0.0
2015-Jul-11 07:29N 39°58' E 119°50'0 0.0
2015-Jul-11 06:29N 39°58' E 119°50'0 0.0
2015-Jul-11 05:29N 39°58' E 119°50'0 0.0
2015-Jul-11 04:29N 39°58' E 119°50'0 0.0
2015-Jul-11 03:23N 39°58' E 119°50'0 0.0
2015-Jul-11 02:29N 39°58' E 119°50'0 0.0
2015-Jul-09 05:23N 39°58' E 119°50'0 0.1
2015-Jul-09 04:29N 39°58' E 119°50'0 0.0
2015-Jul-09 03:29N 39°58' E 119°50'  
Track history (hours):
 
Tides and Currents Weather Stations Pressure Air Temp Water Temp Dewpoint Dewpoint Depression Visibility Wind Speed Wind Dir Waves Ship Positions

Harvest Peace

Last reported at 2015-Jul-18 12:32 UTC. Time now 2015-Aug-01 03:29 UTC.
Position N 37°48' E 123°36'.
Warning: this ship's position is 13 days out of date.

Length 225 m; draft 6 m.

Type: Cargo ship. MMSI: 538004103.

Date/timePositionNaut miles runAvg speedWind from/ knotsBaromVisibWave heightAir tempDewpointWater temp
2015-Jul-18 12:32N 37°48' E 123°36'4013.1
2015-Jul-18 09:30N 38°04' E 122°50'2713.8
2015-Jul-18 07:33N 38°12' E 122°18'1313.0
2015-Jul-18 06:33N 38°14' E 122°02'2311.6
2015-Jul-18 04:33N 38°15' E 121°32'8110.1
2015-Jul-17 20:28N 39°16' E 120°23'5 5.4
2015-Jul-17 19:33N 39°20' E 120°21'5 5.4
2015-Jul-17 18:33N 39°26' E 120°19'6 5.8
2015-Jul-17 17:31N 39°31' E 120°17'6 6.3
2015-Jul-17 16:33N 39°37' E 120°14'6 6.5
2015-Jul-17 15:33N 39°42' E 120°09'6 5.8
2015-Jul-17 14:33N 39°45' E 120°02'6 5.9
2015-Jul-17 13:33N 39°47' E 119°55'6 6.4
2015-Jul-17 12:33N 39°53' E 119°50'2 1.7
2015-Jul-17 11:33N 39°54' E 119°52'3 3.1
2015-Jul-17 10:33N 39°56' E 119°50'2 1.8
2015-Jul-17 09:27N 39°58' E 119°50'0 0.0
2015-Jul-17 08:21N 39°58' E 119°50'0 0.0
2015-Jul-17 07:21N 39°58' E 119°50'0 0.0
2015-Jul-17 06:33N 39°58' E 119°50'0 0.0
2015-Jul-17 05:33N 39°58' E 119°50'0 0.0
2015-Jul-17 04:33N 39°58' E 119°50'0 0.0
2015-Jul-17 03:33N 39°58' E 119°50'0 0.0
2015-Jul-17 02:33N 39°58' E 119°50'0 0.0
2015-Jul-17 01:33N 39°58' E 119°50'0 0.0
2015-Jul-17 00:33N 39°58' E 119°50'0 0.0
2015-Jul-16 23:27N 39°58' E 119°50'0 0.0
2015-Jul-16 22:33N 39°58' E 119°50'0 0.0
2015-Jul-16 21:33N 39°58' E 119°50'0 0.0
2015-Jul-16 20:33N 39°58' E 119°50'0 0.0
2015-Jul-16 19:27N 39°58' E 119°50'0 0.0
2015-Jul-16 18:33N 39°58' E 119°50'0 0.0
2015-Jul-16 17:33N 39°58' E 119°50'0 0.0
2015-Jul-16 16:33N 39°58' E 119°50'0 0.0
2015-Jul-16 15:33N 39°58' E 119°50'0 0.0
2015-Jul-16 14:33N 39°58' E 119°50'0 0.0
2015-Jul-16 13:33N 39°58' E 119°50'0 0.0
2015-Jul-16 12:33N 39°58' E 119°50'0 0.0
2015-Jul-16 11:33N 39°58' E 119°50'0 0.0
2015-Jul-16 10:33N 39°58' E 119°50'0 0.0
2015-Jul-16 09:33N 39°58' E 119°50'0 0.0
2015-Jul-16 08:33N 39°58' E 119°50'0 0.0
2015-Jul-16 07:27N 39°58' E 119°50'0 0.0
2015-Jul-16 06:33N 39°58' E 119°50'0 0.0
2015-Jul-16 05:27N 39°58' E 119°50'0 0.0
2015-Jul-16 04:33N 39°58' E 119°50'0 0.0
2015-Jul-16 03:33N 39°58' E 119°50'0 0.0
2015-Jul-16 02:33N 39°58' E 119°50'0 0.0
2015-Jul-16 01:33N 39°58' E 119°50'0 0.0
2015-Jul-16 00:33N 39°58' E 119°50'0 0.0
2015-Jul-15 23:27N 39°58' E 119°50'0 0.0
2015-Jul-15 22:33N 39°58' E 119°50'0 0.0
2015-Jul-15 21:33N 39°58' E 119°50'0 0.0
2015-Jul-15 20:33N 39°58' E 119°50'0 0.0
2015-Jul-15 19:33N 39°58' E 119°50'0 0.0
2015-Jul-15 18:33N 39°58' E 119°50'0 0.0
2015-Jul-15 17:33N 39°58' E 119°50'0 0.0
2015-Jul-15 16:33N 39°58' E 119°50'0 0.0
2015-Jul-15 15:33N 39°58' E 119°50'0 0.0
2015-Jul-15 14:33N 39°58' E 119°50'0 0.0
2015-Jul-15 13:33N 39°58' E 119°50'0 0.0
2015-Jul-15 12:33N 39°58' E 119°50'0 0.0
2015-Jul-15 11:33N 39°58' E 119°50'0 0.0
2015-Jul-15 10:33N 39°58' E 119°50'0 0.0
2015-Jul-15 09:33N 39°58' E 119°50'0 0.0
2015-Jul-15 08:33N 39°58' E 119°50'0 0.0
2015-Jul-15 07:33N 39°58' E 119°50'0 0.0
2015-Jul-15 06:33N 39°58' E 119°50'0 0.0
2015-Jul-15 05:27N 39°58' E 119°50'0 0.0
2015-Jul-15 04:21N 39°58' E 119°50'0 0.0
2015-Jul-15 03:30N 39°58' E 119°50'0 0.0
2015-Jul-15 02:25N 39°58' E 119°50'0 0.0
2015-Jul-15 01:30N 39°58' E 119°50'0 0.0
2015-Jul-15 00:30N 39°58' E 119°50'0 0.0
2015-Jul-14 23:30N 39°58' E 119°50'0 0.0
2015-Jul-14 22:30N 39°58' E 119°50'0 0.0
2015-Jul-14 21:30N 39°58' E 119°50'0 0.0
2015-Jul-14 20:30N 39°58' E 119°50'0 0.0
2015-Jul-14 19:30N 39°58' E 119°50'0 0.0
2015-Jul-14 18:30N 39°58' E 119°50'0 0.0
2015-Jul-14 17:30N 39°58' E 119°50'0 0.0
2015-Jul-14 16:30N 39°58' E 119°50'0 0.0
2015-Jul-14 15:30N 39°58' E 119°50'0 0.0
2015-Jul-14 14:30N 39°58' E 119°50'0 0.0
2015-Jul-14 13:30N 39°58' E 119°50'0 0.0
2015-Jul-14 12:30N 39°58' E 119°50'0 0.0
2015-Jul-14 11:30N 39°58' E 119°50'0 0.0
2015-Jul-14 10:30N 39°58' E 119°50'0 0.0
2015-Jul-14 09:24N 39°58' E 119°50'0 0.0
2015-Jul-14 08:30N 39°58' E 119°50'0 0.0
2015-Jul-14 07:30N 39°58' E 119°50'0 0.0
2015-Jul-14 06:30N 39°58' E 119°50'0 0.0
2015-Jul-14 05:24N 39°58' E 119°50'0 0.0
2015-Jul-14 04:30N 39°58' E 119°50'0 0.0
2015-Jul-14 03:12N 39°58' E 119°50'0 0.0
2015-Jul-14 02:30N 39°58' E 119°50'0 0.0
2015-Jul-14 01:30N 39°58' E 119°50'0 0.0
2015-Jul-14 00:30N 39°58' E 119°50'0 0.0
2015-Jul-13 23:30N 39°58' E 119°50'0 0.0
2015-Jul-13 22:30N 39°58' E 119°50'0 0.0
2015-Jul-13 21:30N 39°58' E 119°50'0 0.0
2015-Jul-13 18:30N 39°58' E 119°50'0 0.0
2015-Jul-13 17:30N 39°58' E 119°50'0 0.0
2015-Jul-13 16:30N 39°58' E 119°50'0 0.0
2015-Jul-13 15:24N 39°58' E 119°50'0 0.0
2015-Jul-13 14:24N 39°58' E 119°50'0 0.0
2015-Jul-13 13:30N 39°58' E 119°50'0 0.0
2015-Jul-13 12:30N 39°58' E 119°50'0 0.0
2015-Jul-13 11:30N 39°58' E 119°50'0 0.0
2015-Jul-13 10:24N 39°58' E 119°50'0 0.0
2015-Jul-13 09:30N 39°58' E 119°50'0 0.0
2015-Jul-13 08:30N 39°58' E 119°50'0 0.0
2015-Jul-13 07:30N 39°58' E 119°50'0 0.0
2015-Jul-13 06:30N 39°58' E 119°50'0 0.0
2015-Jul-13 05:30N 39°58' E 119°50'0 0.0
2015-Jul-13 04:30N 39°58' E 119°50'0 0.0
2015-Jul-13 03:30N 39°58' E 119°50'0 0.0
2015-Jul-13 02:30N 39°58' E 119°50'0 0.0
2015-Jul-13 01:30N 39°58' E 119°50'0 0.0
2015-Jul-13 00:30N 39°58' E 119°50'0 0.0
2015-Jul-12 23:30N 39°58' E 119°50'0 0.0
2015-Jul-12 22:24N 39°58' E 119°50'0 0.0
2015-Jul-12 21:24N 39°58' E 119°50'0 0.0
2015-Jul-12 20:30N 39°58' E 119°50'0 0.0
2015-Jul-12 19:30N 39°58' E 119°50'0 0.0
2015-Jul-12 18:30N 39°58' E 119°50'0 0.0
2015-Jul-12 17:24N 39°58' E 119°50'0 0.0
2015-Jul-12 16:30N 39°58' E 119°50'0 0.0
2015-Jul-12 15:30N 39°58' E 119°50'0 0.0
2015-Jul-12 14:30N 39°58' E 119°50'0 0.0
2015-Jul-12 13:30N 39°58' E 119°50'0 0.0
2015-Jul-12 12:30N 39°58' E 119°50'0 0.0
2015-Jul-12 11:30N 39°58' E 119°50'0 0.0
2015-Jul-12 10:30N 39°58' E 119°50'0 0.0
2015-Jul-12 09:24N 39°58' E 119°50'0 0.0
2015-Jul-12 08:30N 39°58' E 119°50'0 0.0
2015-Jul-12 07:30N 39°58' E 119°50'0 0.0
2015-Jul-12 06:30N 39°58' E 119°50'0 0.0
2015-Jul-12 05:30N 39°58' E 119°50'0 0.0
2015-Jul-12 04:30N 39°58' E 119°50'0 0.0
2015-Jul-12 03:30N 39°58' E 119°50'0 0.0
2015-Jul-12 02:30N 39°58' E 119°50'0 0.0
2015-Jul-12 01:30N 39°58' E 119°50'0 0.0
2015-Jul-12 00:30N 39°58' E 119°50'0 0.0
2015-Jul-11 23:24N 39°58' E 119°50'0 0.0
2015-Jul-11 22:30N 39°58' E 119°50'0 0.0
2015-Jul-11 21:30N 39°58' E 119°50'0 0.0
2015-Jul-11 20:30N 39°58' E 119°50'0 0.0
2015-Jul-11 19:30N 39°58' E 119°50'0 0.0
2015-Jul-11 18:30N 39°58' E 119°50'0 0.0
2015-Jul-11 17:30N 39°58' E 119°50'0 0.0
2015-Jul-11 16:30N 39°58' E 119°50'0 0.0
2015-Jul-11 15:30N 39°58' E 119°50'0 0.0
2015-Jul-11 14:30N 39°58' E 119°50'0 0.0
2015-Jul-11 13:32N 39°58' E 119°50'0 0.0
2015-Jul-11 12:28N 39°58' E 119°50'0 0.0
2015-Jul-11 11:28N 39°58' E 119°50'0 0.0
2015-Jul-11 10:28N 39°58' E 119°50'0 0.0
2015-Jul-11 09:28N 39°58' E 119°50'0 0.0
2015-Jul-11 08:06N 39°58' E 119°50'0 0.0
2015-Jul-11 07:29N 39°58' E 119°50'0 0.0
2015-Jul-11 06:29N 39°58' E 119°50'0 0.0
2015-Jul-11 05:29N 39°58' E 119°50'0 0.0
2015-Jul-11 04:29N 39°58' E 119°50'0 0.0
2015-Jul-11 03:23N 39°58' E 119°50'0 0.0
2015-Jul-11 02:29N 39°58' E 119°50'0 0.0
2015-Jul-09 05:23N 39°58' E 119°50'0 0.1
2015-Jul-09 04:29N 39°58' E 119°50'0 0.0
2015-Jul-09 03:29N 39°58' E 119°50'  

Dump ship's entire track history